createdAt,value
2019-06-15T00:04:10.994Z,84.80
2019-06-15T00:09:10.542Z,85.10
2019-06-15T00:14:10.086Z,85.70
2019-06-15T00:19:09.631Z,87.10
2019-06-15T00:24:09.170Z,87.70
2019-06-15T00:29:08.714Z,88.40
2019-06-15T00:34:08.323Z,88.90
2019-06-15T00:39:09.026Z,89.90
2019-06-15T00:44:08.562Z,90.60
2019-06-15T00:49:08.123Z,91.00
2019-06-15T00:54:07.667Z,91.50
2019-06-15T00:59:08.355Z,91.90
2019-06-15T01:04:07.906Z,92.40
2019-06-15T01:09:07.519Z,93.00
2019-06-15T01:14:07.210Z,93.80
2019-06-15T01:19:06.823Z,94.30
2019-06-15T01:24:06.378Z,94.90
2019-06-15T01:29:05.916Z,95.40
2019-06-15T01:34:05.488Z,96.00
2019-06-15T01:39:05.738Z,96.80
2019-06-15T01:44:05.598Z,97.50
2019-06-15T01:49:05.142Z,98.50
2019-06-15T01:54:04.812Z,99.30
2019-06-15T01:59:04.599Z,99.90
2019-06-15T02:04:04.146Z,99.90
2019-06-15T02:09:04.700Z,99.90
2019-06-15T02:14:04.887Z,99.90
2019-06-15T02:19:05.499Z,99.90
2019-06-15T02:24:06.474Z,99.90
2019-06-15T02:29:06.069Z,99.90
2019-06-15T02:34:05.694Z,99.90
2019-06-15T02:39:07.013Z,99.90
2019-06-15T02:44:07.271Z,99.90
2019-06-15T02:49:06.893Z,99.90
2019-06-15T02:54:07.398Z,99.90
2019-06-15T02:59:06.950Z,99.90
2019-06-15T03:04:06.635Z,99.90
2019-06-15T03:09:06.813Z,99.90
2019-06-15T03:14:06.758Z,99.90
2019-06-15T03:19:07.274Z,99.90
2019-06-15T03:24:06.887Z,99.90
2019-06-15T03:29:06.455Z,99.90
2019-06-15T03:34:06.006Z,99.90
2019-06-15T03:39:06.957Z,99.90
2019-06-15T03:44:06.568Z,99.90
2019-06-15T03:49:06.114Z,99.90
2019-06-15T03:54:05.659Z,99.90
2019-06-15T03:59:05.578Z,99.90
2019-06-15T04:04:05.197Z,99.90
2019-06-15T04:09:06.877Z,99.90
2019-06-15T04:14:06.431Z,99.90
2019-06-15T04:19:06.053Z,99.90
2019-06-15T04:24:05.676Z,99.90
2019-06-15T04:29:05.406Z,99.90
2019-06-15T04:34:05.360Z,99.90
2019-06-15T04:39:06.555Z,99.90
2019-06-15T04:44:06.179Z,99.90
2019-06-15T04:49:05.716Z,99.90
2019-06-15T04:54:06.326Z,99.90
2019-06-15T04:59:05.871Z,99.90
2019-06-15T05:04:05.439Z,99.90
2019-06-15T05:09:06.540Z,99.90
2019-06-15T05:14:06.117Z,99.90
2019-06-15T05:19:05.700Z,99.90
2019-06-15T05:24:07.946Z,99.90
2019-06-15T05:29:25.838Z,99.90
2019-06-15T05:34:25.416Z,99.90
2019-06-15T05:39:25.079Z,99.90
2019-06-15T05:44:24.703Z,99.90
2019-06-15T05:49:24.248Z,99.90
2019-06-15T05:54:23.817Z,99.90
2019-06-15T05:59:23.366Z,99.90
2019-06-15T06:04:22.921Z,99.90
2019-06-15T06:09:22.459Z,99.90
2019-06-15T06:14:22.004Z,99.90
2019-06-15T06:19:21.552Z,99.90
2019-06-15T06:24:21.105Z,99.90
2019-06-15T06:29:20.657Z,99.90
2019-06-15T06:34:20.299Z,99.90
2019-06-15T06:39:19.830Z,99.90
2019-06-15T06:44:19.383Z,99.90
2019-06-15T06:49:18.955Z,99.90
2019-06-15T06:54:18.498Z,99.90
2019-06-15T06:59:18.154Z,99.90
2019-06-15T07:04:17.699Z,99.90
2019-06-15T07:09:17.246Z,99.90
2019-06-15T07:14:16.798Z,99.90
2019-06-15T07:19:16.371Z,99.90
2019-06-15T07:24:15.937Z,99.90
2019-06-15T07:29:15.514Z,99.90
2019-06-15T07:34:15.155Z,99.90
2019-06-15T07:39:14.694Z,99.90
2019-06-15T07:44:14.294Z,99.90
2019-06-15T07:49:13.936Z,99.90
2019-06-15T07:54:14.484Z,99.90
2019-06-15T07:59:14.151Z,99.90
2019-06-15T08:04:13.714Z,99.90
2019-06-15T08:09:13.260Z,99.90
2019-06-15T08:14:12.882Z,99.90
2019-06-15T08:19:12.422Z,99.90
2019-06-15T08:24:12.133Z,99.90
2019-06-15T08:29:11.678Z,99.90
2019-06-15T08:34:11.318Z,99.90
2019-06-15T08:39:10.866Z,99.90
2019-06-15T08:44:10.489Z,99.90
2019-06-15T08:49:10.110Z,99.90
2019-06-15T08:54:09.665Z,99.90
2019-06-15T08:59:09.214Z,99.90
2019-06-15T09:04:08.771Z,99.90
2019-06-15T09:09:08.395Z,99.90
2019-06-15T09:14:07.935Z,99.90
2019-06-15T09:19:07.474Z,99.90
2019-06-15T09:24:07.021Z,99.90
2019-06-15T09:29:11.260Z,99.90
2019-06-15T09:34:18.468Z,99.90
2019-06-15T09:39:09.102Z,99.90
2019-06-15T09:44:08.732Z,99.90
2019-06-15T09:49:08.288Z,99.90
2019-06-15T09:54:07.819Z,99.90
2019-06-15T09:59:07.361Z,99.90
2019-06-15T10:04:06.903Z,99.90
2019-06-15T10:09:07.475Z,99.90
2019-06-15T10:14:07.115Z,99.90
2019-06-15T10:19:07.633Z,99.90
2019-06-15T10:24:07.689Z,99.90
2019-06-15T10:29:07.274Z,99.90
2019-06-15T10:34:06.845Z,99.90
2019-06-15T10:39:06.689Z,99.90
2019-06-15T10:44:06.227Z,99.90
2019-06-15T10:49:05.771Z,99.90
2019-06-15T10:54:05.626Z,99.90
2019-06-15T10:59:05.383Z,99.90
2019-06-15T11:04:05.173Z,99.90
2019-06-15T11:09:07.878Z,99.90
2019-06-15T11:14:08.837Z,99.90
2019-06-15T11:19:08.462Z,99.90
2019-06-15T11:24:08.346Z,99.90
2019-06-15T11:29:07.886Z,99.90
2019-06-15T11:34:10.553Z,99.90
2019-06-15T11:39:10.091Z,99.90
2019-06-15T11:44:09.645Z,99.90
2019-06-15T11:49:09.180Z,99.90
2019-06-15T11:54:08.743Z,99.90
2019-06-15T11:59:08.356Z,99.90
2019-06-15T12:04:07.916Z,99.90
2019-06-15T12:09:08.518Z,99.90
2019-06-15T12:14:08.084Z,99.90
2019-06-15T12:19:07.696Z,99.90
2019-06-15T12:24:07.330Z,98.80
2019-06-15T12:29:07.900Z,99.90
2019-06-15T12:34:07.615Z,97.00
2019-06-15T12:39:07.658Z,96.40
2019-06-15T12:44:09.115Z,96.90
2019-06-15T12:49:08.660Z,95.80
2019-06-15T12:54:08.195Z,93.40
2019-06-15T12:59:07.730Z,92.80
2019-06-15T13:04:07.330Z,93.40
2019-06-15T13:09:07.742Z,91.90
2019-06-15T13:14:07.302Z,91.30
2019-06-15T13:19:06.843Z,92.70
2019-06-15T13:24:06.387Z,93.50
2019-06-15T13:29:05.934Z,93.40
2019-06-15T13:34:05.493Z,91.20
2019-06-15T13:39:06.578Z,90.00
2019-06-15T13:44:06.148Z,84.50
2019-06-15T13:49:05.708Z,86.10
2019-06-15T13:54:05.387Z,83.60
2019-06-15T13:59:04.998Z,85.50
2019-06-15T14:04:04.621Z,84.60
2019-06-15T14:09:06.718Z,82.70
2019-06-15T14:14:06.498Z,78.70
2019-06-15T14:19:06.108Z,79.80
2019-06-15T14:24:05.650Z,77.90
2019-06-15T14:29:05.317Z,81.10
2019-06-15T14:34:05.826Z,75.30
2019-06-15T14:39:07.152Z,76.20
2019-06-15T14:44:06.906Z,76.40
2019-06-15T14:49:06.574Z,76.50
2019-06-15T14:54:06.662Z,76.30
2019-06-15T14:59:06.434Z,77.50
2019-06-15T15:04:06.369Z,77.30
2019-06-15T15:09:07.174Z,77.60
2019-06-15T15:14:06.822Z,74.60
2019-06-15T15:19:07.579Z,76.30
2019-06-15T15:24:07.199Z,85.00
2019-06-15T15:29:07.139Z,87.40
2019-06-15T15:34:08.582Z,89.80
2019-06-15T15:39:10.322Z,89.70
2019-06-15T15:44:09.836Z,88.40
2019-06-15T15:49:09.387Z,89.10
2019-06-15T15:54:09.010Z,89.70
2019-06-15T15:59:08.554Z,87.70
2019-06-15T16:04:09.131Z,87.20
2019-06-15T16:09:08.946Z,85.40
2019-06-15T16:14:08.482Z,85.70
2019-06-15T16:19:09.095Z,85.70
2019-06-15T16:24:16.447Z,86.30
2019-06-15T16:29:16.858Z,87.30
2019-06-15T16:34:36.996Z,86.70
2019-06-15T16:39:36.788Z,86.40
2019-06-15T16:44:36.652Z,86.40
2019-06-15T16:49:36.397Z,88.50
2019-06-15T16:54:36.184Z,87.50
2019-06-15T16:59:36.477Z,88.00
2019-06-15T17:04:36.496Z,87.80
2019-06-15T17:09:36.299Z,86.60
2019-06-15T17:14:36.503Z,85.70
2019-06-15T17:19:36.861Z,84.90
2019-06-15T17:24:36.953Z,85.80
2019-06-15T17:29:36.688Z,86.20
2019-06-15T17:34:37.307Z,85.60
2019-06-15T17:39:37.536Z,84.10
2019-06-15T17:44:37.274Z,83.40
2019-06-15T17:49:37.215Z,83.80
2019-06-15T17:54:37.381Z,84.70
2019-06-15T17:59:37.058Z,85.50
2019-06-15T18:04:37.414Z,86.20
2019-06-15T18:09:37.042Z,86.70
2019-06-15T18:14:36.858Z,87.60
2019-06-15T18:19:36.988Z,87.20
2019-06-15T18:24:37.331Z,88.40
2019-06-15T18:29:36.942Z,90.20
2019-06-15T18:34:36.886Z,90.90
2019-06-15T18:39:36.967Z,91.20
2019-06-15T18:44:36.742Z,91.00
2019-06-15T18:49:36.391Z,91.30
2019-06-15T18:54:36.440Z,91.50
2019-06-15T18:59:37.935Z,91.80
2019-06-15T19:04:40.346Z,91.90
2019-06-15T19:09:40.059Z,92.30
2019-06-15T19:14:39.616Z,92.60
2019-06-15T19:19:39.282Z,92.90
2019-06-15T19:24:38.843Z,93.10
2019-06-15T19:29:38.409Z,93.20
2019-06-15T19:34:47.182Z,93.70
2019-06-15T19:39:39.250Z,94.20
2019-06-15T19:44:38.808Z,94.00
2019-06-15T19:49:40.506Z,94.10
2019-06-15T19:54:40.033Z,94.90
2019-06-15T19:59:39.639Z,94.50
2019-06-15T20:04:39.226Z,94.90
2019-06-15T20:09:38.770Z,94.90
2019-06-15T20:14:38.302Z,95.30
2019-06-15T20:19:37.947Z,95.60
2019-06-15T20:24:37.496Z,95.90
2019-06-15T20:29:37.102Z,96.10
2019-06-15T20:34:37.256Z,96.50
2019-06-15T20:39:36.875Z,97.10
2019-06-15T20:44:36.841Z,97.50
2019-06-15T20:49:37.012Z,97.90
2019-06-15T20:54:36.678Z,97.90
2019-06-15T20:59:37.047Z,98.60
2019-06-15T21:04:36.796Z,99.10
2019-06-15T21:09:36.540Z,99.90
2019-06-15T21:14:36.722Z,99.90
2019-06-15T21:19:37.035Z,99.90
2019-06-15T21:24:38.205Z,99.90
2019-06-15T21:29:37.735Z,99.90
2019-06-15T21:34:37.997Z,99.90
2019-06-15T21:39:37.844Z,99.90
2019-06-15T21:44:37.487Z,99.90
2019-06-15T21:49:37.022Z,99.90
2019-06-15T21:54:36.597Z,99.90
2019-06-15T21:59:37.724Z,99.90
2019-06-15T22:04:37.370Z,99.90
2019-06-15T22:09:37.003Z,99.90
2019-06-15T22:14:36.567Z,99.90
2019-06-15T22:19:36.864Z,99.90
2019-06-15T22:24:37.687Z,99.90
2019-06-15T22:29:37.205Z,99.90
2019-06-15T22:34:36.773Z,99.90
2019-06-15T22:39:37.146Z,99.90
2019-06-15T22:44:37.348Z,99.90
2019-06-15T22:49:37.068Z,99.90
2019-06-15T22:54:37.564Z,99.90
2019-06-15T22:59:37.491Z,99.90
2019-06-15T23:04:37.219Z,99.90
2019-06-15T23:09:36.864Z,99.90
2019-06-15T23:14:37.281Z,99.90
2019-06-15T23:19:37.032Z,99.90
2019-06-15T23:24:36.580Z,99.90
2019-06-15T23:29:36.797Z,99.90
2019-06-15T23:34:36.555Z,99.90
2019-06-15T23:39:36.220Z,99.90
2019-06-15T23:44:36.203Z,99.90
2019-06-15T23:49:36.672Z,99.90
2019-06-15T23:54:37.011Z,99.90
2019-06-15T23:59:37.249Z,99.90
